Strona główna
METAR-TAF:

METAR-TAF

Lotnisko :

Glasgow Municipal Airport

Glasgow, Kentucky, Stany Zjednoczone

Szerokość geograficzna: 37-01-54N, Długość geograficzna: 085-57-13W, wysokość: 218 m

Aktualna obserwacja pogody

Raport powstał 22 minut temu, godzina 07:35 UTC
Wiatr 10 kt od północ
Temperatura -8°C
Wilgotność 73%
Ciśnienie 1031 hPa
Widzialność: 16.1 km
Zachmurzenie całkowite na wysokości 1700 ft

METAR: KGLW 200735Z AUTO 36010KT 10SM OVC017 M08/M12 A3046 RMK AO2 T10821118

czas: 01:57 (07:57 UTC)


TAF: brakujący

Obserwacja i prognoza pogody dla ponad 4000 lotnisk (raport METAR i TAF).

Dostępne stacje oznaczono żółtymi i czerwonymi punktami na mapie.

Najedź kursorem aby zobaczyć nazwę stacji.

Kliknij aby zobaczyć obserwacje i prognozy pogody.

Aby zmienić mapę: kliknij na zielony przycisk z czarnym krzyżykiem, aby powiększyć; na zielony przycisk z myślnikiem, aby pomniejszyć; na zielone strzałki, aby przejść do map sąsiednich.


METAR-TAF: